createdAt,value
2017-03-21T00:00:51.995Z,9.2
2017-03-21T00:01:53.841Z,9.2
2017-03-21T00:02:56.076Z,9.2
2017-03-21T00:03:57.938Z,9.2
2017-03-21T00:05:00.297Z,9.2
2017-03-21T00:06:02.150Z,9.2
2017-03-21T00:07:04.146Z,9.2
2017-03-21T00:08:05.993Z,9.2
2017-03-21T00:09:07.971Z,9.2
2017-03-21T00:10:10.180Z,9.2
2017-03-21T00:11:12.181Z,9.2
2017-03-21T00:12:14.373Z,9.2
2017-03-21T00:13:16.221Z,9.2
2017-03-21T00:14:18.423Z,9.1
2017-03-21T00:15:20.615Z,9.1
2017-03-21T00:16:22.459Z,9.1
2017-03-21T00:17:24.318Z,9.1
2017-03-21T00:18:26.503Z,9.1
2017-03-21T00:19:28.370Z,9.2
2017-03-21T00:20:30.216Z,9.2
2017-03-21T00:21:32.168Z,9.2
2017-03-21T00:22:34.691Z,9.2
2017-03-21T00:23:36.929Z,9.2
2017-03-21T00:24:38.784Z,9.1
2017-03-21T00:25:40.628Z,9.1
2017-03-21T00:26:42.476Z,9.1
2017-03-21T00:27:44.321Z,9
2017-03-21T00:28:47.210Z,8.8
2017-03-21T00:29:49.060Z,8.6
2017-03-21T00:30:50.901Z,8.4
2017-03-21T00:31:52.741Z,8.3
2017-03-21T00:32:55.293Z,8.2
2017-03-21T00:33:57.148Z,8.2
2017-03-21T00:34:59.155Z,8.2
2017-03-21T00:36:00.999Z,8.1
2017-03-21T00:37:02.840Z,8
2017-03-21T00:38:04.698Z,8
2017-03-21T00:39:06.904Z,8
2017-03-21T00:40:08.748Z,7.9
2017-03-21T00:41:10.593Z,7.9
2017-03-21T00:42:12.441Z,7.9
2017-03-21T00:43:14.632Z,7.9
2017-03-21T00:44:16.827Z,7.8
2017-03-21T00:45:18.676Z,7.8
2017-03-21T00:46:20.511Z,7.8
2017-03-21T00:47:22.350Z,7.8
2017-03-21T00:48:24.624Z,7.7
2017-03-21T00:49:26.482Z,7.7
2017-03-21T00:50:28.678Z,7.7
2017-03-21T00:51:30.530Z,7.7
2017-03-21T00:52:32.716Z,7.7
2017-03-21T00:53:34.571Z,7.7
2017-03-21T00:54:37.085Z,7.6
2017-03-21T00:55:39.131Z,7.6
2017-03-21T00:56:41.542Z,7.6
2017-03-21T00:57:43.750Z,7.6
2017-03-21T00:58:45.597Z,7.6
2017-03-21T00:59:47.577Z,7.6
2017-03-21T01:00:49.428Z,7.6
2017-03-21T01:01:51.274Z,7.6
2017-03-21T01:02:53.127Z,7.6
2017-03-21T01:03:55.711Z,7.5
2017-03-21T01:04:58.584Z,7.5
2017-03-21T01:06:00.786Z,7.5
2017-03-21T01:07:02.627Z,7.5
2017-03-21T01:08:04.811Z,7.5
2017-03-21T01:09:07.004Z,7.5
2017-03-21T01:10:08.880Z,7.5
2017-03-21T01:11:10.715Z,7.5
2017-03-21T01:12:13.046Z,7.5
2017-03-21T01:13:15.907Z,7.4
2017-03-21T01:14:18.025Z,7.5
2017-03-21T01:15:20.224Z,7.4
2017-03-21T01:16:22.063Z,7.4
2017-03-21T01:17:24.069Z,7.4
2017-03-21T01:18:26.589Z,7.4
2017-03-21T01:19:28.788Z,7.4
2017-03-21T01:20:30.644Z,7.4
2017-03-21T01:21:32.489Z,7.3
2017-03-21T01:22:34.342Z,7.3
2017-03-21T01:23:37.455Z,7.3
2017-03-21T01:24:39.641Z,7.3
2017-03-21T01:25:41.670Z,7.3
2017-03-21T01:26:43.864Z,7.3
2017-03-21T01:27:45.711Z,7.3
2017-03-21T01:28:47.830Z,7.3
2017-03-21T01:29:50.021Z,7.2
2017-03-21T01:30:51.888Z,7.2
2017-03-21T01:31:53.871Z,7.2
2017-03-21T01:32:56.746Z,7.2
2017-03-21T01:33:58.587Z,7.2
2017-03-21T01:35:01.001Z,7.2
2017-03-21T01:36:02.840Z,7.2
2017-03-21T01:37:04.687Z,7.2
2017-03-21T01:38:07.078Z,7.2
2017-03-21T01:39:08.927Z,7.2
2017-03-21T01:40:11.111Z,7.2
2017-03-21T01:41:12.976Z,7.2
2017-03-21T01:42:14.812Z,7.1
2017-03-21T01:43:16.694Z,7.1
2017-03-21T01:44:18.990Z,7.1
2017-03-21T01:45:20.841Z,7.1
2017-03-21T01:46:22.704Z,7.1
2017-03-21T01:47:24.825Z,7.1
2017-03-21T01:48:27.011Z,7.1
2017-03-21T01:49:28.864Z,7.1
2017-03-21T01:50:30.866Z,7.1
2017-03-21T01:51:32.708Z,7.1
2017-03-21T01:52:34.924Z,7.1
2017-03-21T01:53:37.363Z,7.1
2017-03-21T01:54:39.218Z,7
2017-03-21T01:55:41.061Z,7
2017-03-21T01:56:42.958Z,7
2017-03-21T01:57:44.804Z,7
2017-03-21T01:58:46.651Z,7
2017-03-21T01:59:49.112Z,7
2017-03-21T02:00:50.956Z,7
2017-03-21T02:01:52.794Z,7
2017-03-21T02:02:55.348Z,7
2017-03-21T02:03:57.186Z,7
2017-03-21T02:04:59.396Z,7
2017-03-21T02:06:01.756Z,7
2017-03-21T02:07:04.285Z,7
2017-03-21T02:08:06.384Z,7.1
2017-03-21T02:09:08.573Z,7
2017-03-21T02:10:10.422Z,7
2017-03-21T02:11:12.526Z,7
2017-03-21T02:12:14.381Z,7
2017-03-21T02:13:16.961Z,7
2017-03-21T02:14:19.690Z,7.1
2017-03-21T02:15:21.530Z,7
2017-03-21T02:16:23.412Z,7
2017-03-21T02:17:25.253Z,7
2017-03-21T02:18:27.432Z,7
2017-03-21T02:19:29.272Z,7
2017-03-21T02:20:31.120Z,7
2017-03-21T02:21:32.962Z,7
2017-03-21T02:22:35.144Z,7
2017-03-21T02:23:38.248Z,7
2017-03-21T02:24:40.940Z,7
2017-03-21T02:25:42.779Z,7
2017-03-21T02:26:44.628Z,7
2017-03-21T02:27:46.818Z,7
2017-03-21T02:28:48.665Z,7
2017-03-21T02:29:51.003Z,7
2017-03-21T02:30:52.842Z,7
2017-03-21T02:31:54.693Z,7
2017-03-21T02:32:56.551Z,7
2017-03-21T02:33:58.639Z,7
2017-03-21T02:35:01.157Z,7
2017-03-21T02:36:03.011Z,7
2017-03-21T02:37:05.204Z,7
2017-03-21T02:38:07.073Z,6.9
2017-03-21T02:39:09.619Z,7
2017-03-21T02:40:11.807Z,7
2017-03-21T02:41:13.650Z,7
2017-03-21T02:42:15.839Z,7
2017-03-21T02:43:18.028Z,7
2017-03-21T02:44:20.885Z,7
2017-03-21T02:45:23.419Z,7
2017-03-21T02:46:25.269Z,7
2017-03-21T02:47:27.458Z,6.9
2017-03-21T02:48:29.858Z,7
2017-03-21T02:49:32.057Z,7
2017-03-21T02:50:33.894Z,7
2017-03-21T02:51:35.746Z,7
2017-03-21T02:52:38.246Z,7
2017-03-21T02:53:40.794Z,7
2017-03-21T02:54:42.634Z,6.9
2017-03-21T02:55:44.476Z,6.9
2017-03-21T02:56:46.970Z,6.9
2017-03-21T02:57:49.161Z,6.9
2017-03-21T02:58:51.348Z,7
2017-03-21T02:59:53.202Z,7
2017-03-21T03:00:55.039Z,7
2017-03-21T03:01:56.895Z,7
2017-03-21T03:02:58.737Z,6.9
2017-03-21T03:04:00.930Z,6.9
2017-03-21T03:05:02.767Z,6.9
2017-03-21T03:06:04.627Z,6.9
2017-03-21T03:07:06.476Z,6.9
2017-03-21T03:08:08.338Z,7
2017-03-21T03:09:11.051Z,7
2017-03-21T03:10:12.892Z,7
2017-03-21T03:11:14.750Z,7
2017-03-21T03:12:16.947Z,6.9
2017-03-21T03:13:19.811Z,6.9
2017-03-21T03:14:22.270Z,6.9
2017-03-21T03:15:24.132Z,6.9
2017-03-21T03:16:25.981Z,6.8
2017-03-21T03:17:27.837Z,6.8
2017-03-21T03:18:30.370Z,6.8
2017-03-21T03:19:32.560Z,6.8
2017-03-21T03:20:34.416Z,6.8
2017-03-21T03:21:36.598Z,6.8
2017-03-21T03:22:39.461Z,6.8
2017-03-21T03:23:41.338Z,6.8
2017-03-21T03:24:43.529Z,6.8
2017-03-21T03:25:45.381Z,6.9
2017-03-21T03:26:47.565Z,6.8
2017-03-21T03:27:50.321Z,6.8
2017-03-21T03:28:52.510Z,6.8
2017-03-21T03:29:54.360Z,6.8
2017-03-21T03:30:56.220Z,6.8
2017-03-21T03:31:58.599Z,6.8
2017-03-21T03:33:00.791Z,6.7
2017-03-21T03:34:02.644Z,6.7
2017-03-21T03:35:04.833Z,6.7
2017-03-21T03:36:06.728Z,6.8
2017-03-21T03:37:08.573Z,6.7
2017-03-21T03:38:10.429Z,6.7
2017-03-21T03:39:12.275Z,6.7
2017-03-21T03:40:14.358Z,6.7
2017-03-21T03:41:16.203Z,6.7
2017-03-21T03:42:18.043Z,6.6
2017-03-21T03:43:20.248Z,6.6
2017-03-21T03:44:22.350Z,6.6
2017-03-21T03:45:24.546Z,6.6
2017-03-21T03:46:26.441Z,6.6
2017-03-21T03:47:28.289Z,6.5
2017-03-21T03:48:30.486Z,6.5
2017-03-21T03:49:32.678Z,6.5
2017-03-21T03:50:34.523Z,6.5
2017-03-21T03:51:36.719Z,6.5
2017-03-21T03:52:39.445Z,6.4
2017-03-21T03:53:41.306Z,6.4
2017-03-21T03:54:43.820Z,6.4
2017-03-21T03:55:45.665Z,6.3
2017-03-21T03:56:47.842Z,6.3
2017-03-21T03:57:50.240Z,6.3
2017-03-21T03:58:52.436Z,6.3
2017-03-21T03:59:54.977Z,6.2
2017-03-21T04:00:56.823Z,6.2
2017-03-21T04:01:58.826Z,6.1
2017-03-21T04:03:00.685Z,6.2
2017-03-21T04:04:02.541Z,6.1
2017-03-21T04:05:04.400Z,6.1
2017-03-21T04:06:06.243Z,6.1
2017-03-21T04:07:08.083Z,6.1
2017-03-21T04:08:10.273Z,6.1
2017-03-21T04:09:12.130Z,6.1
2017-03-21T04:10:13.975Z,6.1
2017-03-21T04:11:15.818Z,6.1
2017-03-21T04:12:17.663Z,6.1
2017-03-21T04:13:19.534Z,6.1
2017-03-21T04:14:22.437Z,6.1
2017-03-21T04:15:24.294Z,6.1
2017-03-21T04:16:26.468Z,6.1
2017-03-21T04:17:28.323Z,6.2
2017-03-21T04:18:30.519Z,6.1
2017-03-21T04:19:32.370Z,6.1
2017-03-21T04:20:34.572Z,6.1
2017-03-21T04:21:36.586Z,6.1
2017-03-21T04:22:38.773Z,6.1
2017-03-21T04:23:40.957Z,6.1
2017-03-21T04:24:42.817Z,6.1
2017-03-21T04:25:44.660Z,6.1
2017-03-21T04:26:46.965Z,6.1
2017-03-21T04:27:49.149Z,6.1
2017-03-21T04:28:51.014Z,6.1
2017-03-21T04:29:53.191Z,6.1
2017-03-21T04:30:55.037Z,6.1
2017-03-21T04:31:57.440Z,6.2
2017-03-21T04:32:59.628Z,6.2
2017-03-21T04:34:01.833Z,6.2
2017-03-21T04:35:04.010Z,6.2
2017-03-21T04:36:05.849Z,6.2
2017-03-21T04:37:08.212Z,6.1
2017-03-21T04:38:10.067Z,6.1
2017-03-21T04:39:12.260Z,6.1
2017-03-21T04:40:14.106Z,6.1
2017-03-21T04:41:16.437Z,6.1
2017-03-21T04:42:18.624Z,6
2017-03-21T04:43:21.505Z,6
2017-03-21T04:44:23.736Z,6
2017-03-21T04:45:25.577Z,6
2017-03-21T04:46:27.428Z,6
2017-03-21T04:47:29.270Z,6
2017-03-21T04:48:31.126Z,5.9
2017-03-21T04:49:33.640Z,5.9
2017-03-21T04:50:35.494Z,5.9
2017-03-21T04:51:37.673Z,5.9
2017-03-21T04:52:39.521Z,5.9
2017-03-21T04:53:41.715Z,5.9
2017-03-21T04:54:43.897Z,5.9
2017-03-21T04:55:45.740Z,5.9
2017-03-21T04:56:47.583Z,5.9
2017-03-21T04:57:49.764Z,5.9
2017-03-21T04:58:52.306Z,5.9
2017-03-21T04:59:55.184Z,5.9
2017-03-21T05:00:57.223Z,5.8
2017-03-21T05:01:59.417Z,5.8
2017-03-21T05:03:01.264Z,5.8
2017-03-21T05:04:04.160Z,5.8
2017-03-21T05:05:06.107Z,5.8
2017-03-21T05:06:07.964Z,5.8
2017-03-21T05:07:09.811Z,5.8
2017-03-21T05:08:11.672Z,5.8
2017-03-21T05:09:13.859Z,5.7
2017-03-21T05:10:16.388Z,5.7
2017-03-21T05:11:18.239Z,5.7
2017-03-21T05:12:20.083Z,5.7
2017-03-21T05:13:21.932Z,5.7
2017-03-21T05:14:24.479Z,5.7
2017-03-21T05:15:26.326Z,5.7
2017-03-21T05:16:28.659Z,5.7
2017-03-21T05:17:30.581Z,5.7
2017-03-21T05:18:32.783Z,5.7
2017-03-21T05:19:34.629Z,5.6
2017-03-21T05:20:36.806Z,5.6
2017-03-21T05:21:38.712Z,5.6
2017-03-21T05:22:40.896Z,5.6
2017-03-21T05:23:43.099Z,5.5
2017-03-21T05:24:45.280Z,5.5
2017-03-21T05:25:47.467Z,5.4
2017-03-21T05:26:49.316Z,5.5
2017-03-21T05:27:51.171Z,5.5
2017-03-21T05:28:54.428Z,5.5
2017-03-21T05:29:56.283Z,5.5
2017-03-21T05:30:58.129Z,5.4
2017-03-21T05:31:59.972Z,5.4
2017-03-21T05:33:02.321Z,5.4
2017-03-21T05:34:04.166Z,5.4
2017-03-21T05:35:06.000Z,5.4
2017-03-21T05:36:07.851Z,5.4
2017-03-21T05:37:10.141Z,5.4
2017-03-21T05:38:12.327Z,5.4
2017-03-21T05:39:14.843Z,5.3
2017-03-21T05:40:16.700Z,5.3
2017-03-21T05:41:18.909Z,5.4
2017-03-21T05:42:20.758Z,5.4
2017-03-21T05:43:23.635Z,5.4
2017-03-21T05:44:26.169Z,5.4
2017-03-21T05:45:28.055Z,5.4
2017-03-21T05:46:29.898Z,5.5
2017-03-21T05:47:31.750Z,5.4
2017-03-21T05:48:33.593Z,5.5
2017-03-21T05:49:35.445Z,5.5
2017-03-21T05:50:37.281Z,5.5
2017-03-21T05:51:39.132Z,5.5
2017-03-21T05:52:41.323Z,5.5
2017-03-21T05:53:43.173Z,5.6
2017-03-21T05:54:45.018Z,5.5
2017-03-21T05:55:46.858Z,5.5
2017-03-21T05:56:48.705Z,5.6
2017-03-21T05:57:50.558Z,5.6
2017-03-21T05:58:53.078Z,5.6
2017-03-21T05:59:54.936Z,5.6
2017-03-21T06:00:57.478Z,5.6
2017-03-21T06:01:59.330Z,5.7
2017-03-21T06:03:01.514Z,5.7
2017-03-21T06:04:03.697Z,5.7
2017-03-21T06:05:05.547Z,5.7
2017-03-21T06:06:07.392Z,5.7
2017-03-21T06:07:09.580Z,5.6
2017-03-21T06:08:11.427Z,5.7
2017-03-21T06:09:14.305Z,5.7
2017-03-21T06:10:16.611Z,5.7
2017-03-21T06:11:18.451Z,5.7
2017-03-21T06:12:20.283Z,5.7
2017-03-21T06:13:22.131Z,5.6
2017-03-21T06:14:24.630Z,5.7
2017-03-21T06:15:26.492Z,5.7
2017-03-21T06:16:28.337Z,5.7
2017-03-21T06:17:30.182Z,5.7
2017-03-21T06:18:32.532Z,5.7
2017-03-21T06:19:34.736Z,5.6
2017-03-21T06:20:36.569Z,5.7
2017-03-21T06:21:38.414Z,5.7
2017-03-21T06:22:40.685Z,5.7
2017-03-21T06:23:42.536Z,5.8
2017-03-21T06:24:44.386Z,5.7
2017-03-21T06:25:46.262Z,5.7
2017-03-21T06:26:48.129Z,5.7
2017-03-21T06:27:50.645Z,5.8
2017-03-21T06:28:52.831Z,5.8
2017-03-21T06:29:54.717Z,5.8
2017-03-21T06:30:56.904Z,5.8
2017-03-21T06:31:59.090Z,5.8
2017-03-21T06:33:00.938Z,5.8
2017-03-21T06:34:02.789Z,5.8
2017-03-21T06:35:04.627Z,5.8
2017-03-21T06:36:06.476Z,5.8
2017-03-21T06:37:08.652Z,5.9
2017-03-21T06:38:10.836Z,5.9
2017-03-21T06:39:12.685Z,5.9
2017-03-21T06:40:14.531Z,5.9
2017-03-21T06:41:16.371Z,5.9
2017-03-21T06:42:18.251Z,5.9
2017-03-21T06:43:20.099Z,5.9
2017-03-21T06:44:22.287Z,6
2017-03-21T06:45:24.125Z,6
2017-03-21T06:46:25.965Z,6
2017-03-21T06:47:27.806Z,6
2017-03-21T06:48:30.675Z,6
2017-03-21T06:49:32.882Z,6.1
2017-03-21T06:50:35.331Z,6
2017-03-21T06:51:37.176Z,6.1
2017-03-21T06:52:39.361Z,6.1
2017-03-21T06:53:41.230Z,6.1
2017-03-21T06:54:43.531Z,6.1
2017-03-21T06:55:45.380Z,6.1
2017-03-21T06:56:47.224Z,6.2
2017-03-21T06:57:49.427Z,6.2
2017-03-21T06:58:51.848Z,6.3
2017-03-21T06:59:54.390Z,6.2
2017-03-21T07:00:56.238Z,6.3
2017-03-21T07:01:58.090Z,6.3
2017-03-21T07:03:00.325Z,6.3
2017-03-21T07:04:02.515Z,6.4
2017-03-21T07:05:04.361Z,6.4
2017-03-21T07:06:06.210Z,6.4
2017-03-21T07:07:08.216Z,6.4
2017-03-21T07:08:10.399Z,6.5
2017-03-21T07:09:12.254Z,6.5
2017-03-21T07:10:14.115Z,6.5
2017-03-21T07:11:16.013Z,6.5
2017-03-21T07:12:17.865Z,6.6
2017-03-21T07:13:20.049Z,6.6
2017-03-21T07:14:21.899Z,6.7
2017-03-21T07:15:23.821Z,6.7
2017-03-21T07:16:25.667Z,6.8
2017-03-21T07:17:27.514Z,6.8
2017-03-21T07:18:29.359Z,6.8
2017-03-21T07:19:31.623Z,6.8
2017-03-21T07:20:33.466Z,6.9
2017-03-21T07:21:35.318Z,7
2017-03-21T07:22:37.500Z,7
2017-03-21T07:23:39.848Z,7.1
2017-03-21T07:24:42.034Z,7
2017-03-21T07:25:43.892Z,7.1
2017-03-21T07:26:45.728Z,7.1
2017-03-21T07:27:47.579Z,7.2
2017-03-21T07:28:49.444Z,7.2
2017-03-21T07:29:51.295Z,7.3
2017-03-21T07:30:53.480Z,7.3
2017-03-21T07:31:55.323Z,7.3
2017-03-21T07:32:57.505Z,7.2
2017-03-21T07:33:59.702Z,7.3
2017-03-21T07:35:01.556Z,7.2
2017-03-21T07:36:03.735Z,7.2
2017-03-21T07:37:06.263Z,7.3
2017-03-21T07:38:08.114Z,7.3
2017-03-21T07:39:10.288Z,7.4
2017-03-21T07:40:12.810Z,7.5
2017-03-21T07:41:14.659Z,7.4
2017-03-21T07:42:16.510Z,7.5
2017-03-21T07:43:18.366Z,7.6
2017-03-21T07:44:20.215Z,7.7
2017-03-21T07:45:22.109Z,7.9
2017-03-21T07:46:23.954Z,7.7
2017-03-21T07:47:25.811Z,7.8
2017-03-21T07:48:27.659Z,7.7
2017-03-21T07:49:29.850Z,7.7
2017-03-21T07:50:32.053Z,7.8
2017-03-21T07:51:33.895Z,7.8
2017-03-21T07:52:36.099Z,7.7
2017-03-21T07:53:38.287Z,7.8
2017-03-21T07:54:40.134Z,7.7
2017-03-21T07:55:41.975Z,7.7
2017-03-21T07:56:43.832Z,7.7
2017-03-21T07:57:45.681Z,7.6
2017-03-21T07:58:47.546Z,7.7
2017-03-21T07:59:49.389Z,7.7
2017-03-21T08:00:51.236Z,7.7
2017-03-21T08:01:53.080Z,7.7
2017-03-21T08:02:54.943Z,7.7
2017-03-21T08:03:56.799Z,7.6
2017-03-21T08:04:58.655Z,7.7
2017-03-21T08:06:01.084Z,7.7
2017-03-21T08:07:02.996Z,7.7
2017-03-21T08:08:05.203Z,7.7
2017-03-21T08:09:07.070Z,7.7
2017-03-21T08:10:09.302Z,7.8
2017-03-21T08:11:11.154Z,7.8
2017-03-21T08:12:13.009Z,7.9
2017-03-21T08:13:14.865Z,7.8
2017-03-21T08:14:17.077Z,7.9
2017-03-21T08:15:18.945Z,7.8
2017-03-21T08:16:21.236Z,7.8
2017-03-21T08:17:23.121Z,8.1
2017-03-21T08:18:24.996Z,8.1
2017-03-21T08:19:27.524Z,8.2
2017-03-21T08:20:29.890Z,8.2
2017-03-21T08:21:32.168Z,8.3
2017-03-21T08:22:34.078Z,8.5
2017-03-21T08:23:35.944Z,8.6
2017-03-21T08:24:38.397Z,8.7
2017-03-21T08:25:40.284Z,9
2017-03-21T08:26:42.191Z,9.2
2017-03-21T08:27:44.069Z,9.1
2017-03-21T08:28:46.307Z,9.2
2017-03-21T08:29:48.212Z,9.3
2017-03-21T08:30:50.077Z,9.4
2017-03-21T08:31:51.946Z,9.6
2017-03-21T08:32:54.382Z,9.7
2017-03-21T08:33:56.269Z,9.7
2017-03-21T08:34:58.143Z,9.7
2017-03-21T08:36:00.011Z,9.7
2017-03-21T08:37:02.226Z,9.6
2017-03-21T08:38:05.168Z,9.5
2017-03-21T08:39:07.042Z,9.5
2017-03-21T08:40:08.893Z,9.5
2017-03-21T08:41:11.324Z,9.5
2017-03-21T08:42:13.552Z,9.5
2017-03-21T08:43:15.435Z,9.5
2017-03-21T08:44:17.290Z,9.8
2017-03-21T08:45:19.151Z,10.1
2017-03-21T08:46:21.003Z,9.9
2017-03-21T08:47:22.876Z,9.9
2017-03-21T08:48:25.333Z,10
2017-03-21T08:49:27.683Z,10
2017-03-21T08:50:29.916Z,10.1
2017-03-21T08:51:31.823Z,10.1
2017-03-21T08:52:33.671Z,10
2017-03-21T08:53:35.532Z,10.1
2017-03-21T08:54:37.434Z,10.1
2017-03-21T08:55:39.941Z,10.2
2017-03-21T08:56:41.823Z,10.5
2017-03-21T08:57:43.687Z,10.4
2017-03-21T08:58:45.888Z,10.2
2017-03-21T08:59:47.777Z,10.2
2017-03-21T09:00:49.632Z,10
2017-03-21T09:01:51.499Z,10.1
2017-03-21T09:02:53.412Z,10.1
2017-03-21T09:03:55.355Z,10.4
2017-03-21T09:04:57.209Z,10.4
2017-03-21T09:05:59.068Z,10.2
2017-03-21T09:07:00.929Z,10.4
2017-03-21T09:08:02.803Z,10
2017-03-21T09:09:05.029Z,10.1
2017-03-21T09:10:06.895Z,10.1
2017-03-21T09:11:08.766Z,10
2017-03-21T09:12:10.632Z,10
2017-03-21T09:13:12.534Z,10.1
2017-03-21T09:14:14.901Z,10
2017-03-21T09:15:16.760Z,9.9
2017-03-21T09:16:18.614Z,9.6
2017-03-21T09:17:20.821Z,9.5
2017-03-21T09:18:22.676Z,9.7
2017-03-21T09:19:24.552Z,9.7
2017-03-21T09:20:27.010Z,9.8
2017-03-21T09:21:28.895Z,9.9
2017-03-21T09:22:30.758Z,9.9
2017-03-21T09:23:33.236Z,9.8
2017-03-21T09:24:35.121Z,9.7
2017-03-21T09:25:37.031Z,9.8
2017-03-21T09:26:39.383Z,9.8
2017-03-21T09:27:41.236Z,9.8
2017-03-21T09:28:43.105Z,9.8
2017-03-21T09:29:45.908Z,9.9
2017-03-21T09:30:47.762Z,10.2
2017-03-21T09:31:49.614Z,10.2
2017-03-21T09:32:51.940Z,10.6
2017-03-21T09:33:54.484Z,10.7
2017-03-21T09:34:56.423Z,10.9
2017-03-21T09:35:58.330Z,10.9
2017-03-21T09:37:00.246Z,10.7
2017-03-21T09:38:02.441Z,11.1
2017-03-21T09:39:04.421Z,11
2017-03-21T09:40:06.292Z,10.8
2017-03-21T09:41:08.165Z,10.7
2017-03-21T09:42:10.618Z,11.1
2017-03-21T09:43:12.479Z,11
2017-03-21T09:44:14.336Z,11.1
2017-03-21T09:45:16.781Z,11
2017-03-21T09:46:18.638Z,11.3
2017-03-21T09:47:20.503Z,11.2
2017-03-21T09:48:22.990Z,11.1
2017-03-21T09:49:24.862Z,11.4
2017-03-21T09:50:26.731Z,11.5
2017-03-21T09:51:29.151Z,11.3
2017-03-21T09:52:31.065Z,11.4
2017-03-21T09:53:32.932Z,11.4
2017-03-21T09:54:35.315Z,11.6
2017-03-21T09:55:37.198Z,11.6
2017-03-21T09:56:39.423Z,11.5
2017-03-21T09:57:42.166Z,11.8
2017-03-21T09:58:44.070Z,11.7
2017-03-21T09:59:45.957Z,11.7
2017-03-21T10:00:48.631Z,11.8
2017-03-21T10:01:50.495Z,11.9
2017-03-21T10:02:52.393Z,12.1
2017-03-21T10:03:54.621Z,12
2017-03-21T10:04:56.480Z,12
2017-03-21T10:05:58.350Z,12.1
2017-03-21T10:07:01.121Z,12
2017-03-21T10:08:02.974Z,12
2017-03-21T10:09:04.860Z,12.5
2017-03-21T10:10:07.193Z,12.8
2017-03-21T10:11:09.059Z,12.6
2017-03-21T10:12:10.902Z,12
2017-03-21T10:13:12.811Z,11.7
2017-03-21T10:14:14.668Z,12.3
2017-03-21T10:15:16.544Z,11.9
2017-03-21T10:16:18.397Z,11.7
2017-03-21T10:17:20.252Z,11.6
2017-03-21T10:18:22.149Z,11.6
2017-03-21T10:19:24.015Z,11.8
2017-03-21T10:20:25.962Z,11.8
2017-03-21T10:21:28.161Z,11.7
2017-03-21T10:22:30.082Z,11.4
2017-03-21T10:23:31.965Z,11.6
2017-03-21T10:24:34.194Z,11.6
2017-03-21T10:25:36.050Z,11.8
2017-03-21T10:26:38.237Z,12.1
2017-03-21T10:27:40.130Z,12
2017-03-21T10:28:41.993Z,12.2
2017-03-21T10:29:43.852Z,12.1
2017-03-21T10:30:45.806Z,12
2017-03-21T10:31:48.031Z,11.8
2017-03-21T10:32:50.281Z,11.5
2017-03-21T10:33:52.140Z,11.9
2017-03-21T10:34:53.992Z,12
2017-03-21T10:35:55.866Z,11.8
2017-03-21T10:36:57.933Z,11.4
2017-03-21T10:37:59.804Z,11.7
2017-03-21T10:39:02.163Z,12
2017-03-21T10:40:04.405Z,12.2
2017-03-21T10:41:06.275Z,12.2
2017-03-21T10:42:08.163Z,12.4
2017-03-21T10:43:10.018Z,12.3
2017-03-21T10:44:11.900Z,12.5
2017-03-21T10:45:13.797Z,12.6
2017-03-21T10:46:15.924Z,12.6
2017-03-21T10:47:17.778Z,12.9
2017-03-21T10:48:19.630Z,12.9
2017-03-21T10:49:21.749Z,12.9
2017-03-21T10:50:23.656Z,12.8
2017-03-21T10:51:25.863Z,13.1
2017-03-21T10:52:27.857Z,13.3
2017-03-21T10:53:29.758Z,13.3
2017-03-21T10:54:31.619Z,13.1
2017-03-21T10:55:33.626Z,13
2017-03-21T10:56:35.485Z,13.1
2017-03-21T10:57:37.354Z,13.2
2017-03-21T10:58:39.246Z,13.2
2017-03-21T10:59:41.106Z,13.8
2017-03-21T11:00:42.958Z,13.6
2017-03-21T11:01:44.832Z,13.5
2017-03-21T11:02:46.705Z,13.6
2017-03-21T11:03:48.586Z,14
2017-03-21T11:04:50.442Z,13.9
2017-03-21T11:05:52.422Z,13.5
2017-03-21T11:06:54.277Z,13.3
2017-03-21T11:07:56.168Z,13.3
2017-03-21T11:08:58.235Z,13.1
2017-03-21T11:10:00.097Z,13.2
2017-03-21T11:11:01.960Z,13.4
2017-03-21T11:12:04.340Z,13.5
2017-03-21T11:13:06.200Z,13.3
2017-03-21T11:14:08.064Z,12.9
2017-03-21T11:15:10.027Z,12.8
2017-03-21T11:16:11.901Z,12.5
2017-03-21T11:17:13.782Z,11.9
2017-03-21T11:18:15.853Z,11.6
2017-03-21T11:19:17.706Z,11.5
2017-03-21T11:20:19.561Z,11.4
2017-03-21T11:21:21.515Z,11.6
2017-03-21T11:22:23.382Z,11.3
2017-03-21T11:23:25.243Z,11.4
2017-03-21T11:24:27.096Z,11.2
2017-03-21T11:25:29.197Z,11.1
2017-03-21T11:26:31.072Z,11
2017-03-21T11:27:32.950Z,11.2
2017-03-21T11:28:34.941Z,11.1
2017-03-21T11:29:36.790Z,11
2017-03-21T11:30:38.683Z,11.1
2017-03-21T11:31:40.576Z,11.1
2017-03-21T11:32:42.423Z,11.1
2017-03-21T11:33:44.285Z,11.3
2017-03-21T11:34:46.131Z,11.2
2017-03-21T11:35:48.016Z,11.2
2017-03-21T11:36:49.879Z,11.1
2017-03-21T11:37:51.741Z,11.1
2017-03-21T11:38:53.591Z,11.2
2017-03-21T11:39:55.518Z,11.2
2017-03-21T11:40:57.706Z,11.1
2017-03-21T11:41:59.911Z,11.2
2017-03-21T11:43:02.111Z,11.1
2017-03-21T11:44:03.987Z,11.2
2017-03-21T11:45:05.896Z,11.2
2017-03-21T11:46:07.763Z,11.3
2017-03-21T11:47:09.619Z,11.1
2017-03-21T11:48:11.680Z,11.1
2017-03-21T11:49:13.555Z,10.9
2017-03-21T11:50:15.801Z,10.8
2017-03-21T11:51:17.658Z,11
2017-03-21T11:52:19.813Z,10.9
2017-03-21T11:53:21.750Z,10.9
2017-03-21T11:54:23.945Z,10.9
2017-03-21T11:55:25.807Z,10.7
2017-03-21T11:56:28.028Z,10.7
2017-03-21T11:57:29.929Z,10.5
2017-03-21T11:58:32.430Z,10.3
2017-03-21T11:59:34.643Z,10.2
2017-03-21T12:00:36.525Z,10
2017-03-21T12:01:38.671Z,10.1
2017-03-21T12:02:40.544Z,9.9
2017-03-21T12:03:42.409Z,9.8
2017-03-21T12:04:44.293Z,9.9
2017-03-21T12:05:46.159Z,9.7
2017-03-21T12:06:48.006Z,9.7
2017-03-21T12:07:50.203Z,9.6
2017-03-21T12:08:52.081Z,9.7
2017-03-21T12:09:54.329Z,9.7
2017-03-21T12:10:56.180Z,9.8
2017-03-21T12:11:58.024Z,9.8
2017-03-21T12:13:00.649Z,9.8
2017-03-21T12:14:02.513Z,10.1
2017-03-21T12:15:04.371Z,10.2
2017-03-21T12:16:06.215Z,10.7
2017-03-21T12:17:08.108Z,10.8
2017-03-21T12:18:10.310Z,11
2017-03-21T12:19:12.166Z,11
2017-03-21T12:20:14.021Z,11.1
2017-03-21T12:21:16.220Z,11.3
2017-03-21T12:22:18.084Z,11.3
2017-03-21T12:23:19.945Z,11.7
2017-03-21T12:24:21.804Z,11.5
2017-03-21T12:25:23.657Z,12.2
2017-03-21T12:26:25.667Z,12
2017-03-21T12:27:27.546Z,12.1
2017-03-21T12:28:29.880Z,12.2
2017-03-21T12:29:32.084Z,12.5
2017-03-21T12:30:33.944Z,12.5
2017-03-21T12:31:35.801Z,12.8
2017-03-21T12:32:37.686Z,13
2017-03-21T12:33:39.907Z,13.2
2017-03-21T12:34:41.781Z,13.6
2017-03-21T12:35:43.635Z,13.4
2017-03-21T12:36:45.481Z,13.2
2017-03-21T12:37:47.370Z,12.7
2017-03-21T12:38:49.667Z,12.6
2017-03-21T12:39:51.524Z,12.8
2017-03-21T12:40:53.377Z,12.6
2017-03-21T12:41:55.926Z,12.6
2017-03-21T12:42:57.783Z,12.5
2017-03-21T12:44:00.270Z,12.6
2017-03-21T12:45:02.172Z,12.5
2017-03-21T12:46:04.212Z,12.6
2017-03-21T12:47:06.110Z,12.8
2017-03-21T12:48:08.008Z,12.8
2017-03-21T12:49:09.940Z,12.8
2017-03-21T12:50:11.827Z,12.8
2017-03-21T12:51:13.754Z,12.6
2017-03-21T12:52:15.634Z,12.6
2017-03-21T12:53:17.840Z,12.6
2017-03-21T12:54:20.033Z,12.3
2017-03-21T12:55:21.910Z,12.3
2017-03-21T12:56:23.771Z,12.4
2017-03-21T12:57:25.622Z,12.4
2017-03-21T12:58:27.492Z,12.5
2017-03-21T12:59:29.652Z,12.1
2017-03-21T13:00:31.509Z,12.2
2017-03-21T13:01:33.368Z,12.1
2017-03-21T13:02:35.218Z,12
2017-03-21T13:03:37.099Z,12
2017-03-21T13:04:39.351Z,12
2017-03-21T13:05:41.541Z,11.9
2017-03-21T13:06:43.397Z,12.1
2017-03-21T13:07:45.279Z,11.8
2017-03-21T13:08:47.182Z,11.7
2017-03-21T13:09:49.032Z,11.5
2017-03-21T13:10:50.896Z,11.6
2017-03-21T13:11:52.770Z,11.6
2017-03-21T13:12:54.671Z,11.5
2017-03-21T13:13:56.692Z,11.6
2017-03-21T13:14:58.552Z,11.6
2017-03-21T13:16:00.411Z,11.6
2017-03-21T13:17:02.636Z,11.9
2017-03-21T13:18:04.486Z,12
2017-03-21T13:19:06.374Z,12.4
2017-03-21T13:20:08.222Z,12.4
2017-03-21T13:21:10.090Z,12.4
2017-03-21T13:22:12.286Z,12.6
2017-03-21T13:23:14.141Z,13
2017-03-21T13:24:15.999Z,12.9
2017-03-21T13:25:17.859Z,12.8
2017-03-21T13:26:19.730Z,13.1
2017-03-21T13:27:22.014Z,12.9
2017-03-21T13:28:24.220Z,12.6
2017-03-21T13:29:26.091Z,12.5
2017-03-21T13:30:27.936Z,12.6
2017-03-21T13:31:29.879Z,12.4
2017-03-21T13:32:31.740Z,12.3
2017-03-21T13:33:33.844Z,12.2
2017-03-21T13:34:35.697Z,12
2017-03-21T13:35:37.553Z,11.7
2017-03-21T13:36:39.405Z,11.6
2017-03-21T13:37:41.276Z,11.7
2017-03-21T13:38:43.487Z,11.7
2017-03-21T13:39:45.857Z,11.5
2017-03-21T13:40:47.746Z,11.6
2017-03-21T13:41:49.611Z,11.3
2017-03-21T13:42:51.802Z,11.3
2017-03-21T13:43:54.003Z,11.1
2017-03-21T13:44:55.848Z,11.2
2017-03-21T13:45:57.716Z,11.1
2017-03-21T13:46:59.578Z,11.1
2017-03-21T13:48:01.440Z,10.9
2017-03-21T13:49:03.365Z,10.5
2017-03-21T13:50:05.227Z,10.5
2017-03-21T13:51:07.084Z,10.3
2017-03-21T13:52:09.329Z,10.3
2017-03-21T13:53:11.181Z,10.4
2017-03-21T13:54:13.038Z,10.3
2017-03-21T13:55:14.894Z,9.8
2017-03-21T13:56:16.745Z,9.7
2017-03-21T13:57:18.593Z,9.4
2017-03-21T13:58:20.450Z,9.3
2017-03-21T13:59:22.869Z,9.2
2017-03-21T14:00:24.707Z,9.2
2017-03-21T14:01:26.561Z,9.1
2017-03-21T14:02:28.768Z,9
2017-03-21T14:03:30.615Z,9.1
2017-03-21T14:04:32.462Z,9.1
2017-03-21T14:05:34.309Z,8.9
2017-03-21T14:06:36.177Z,9.1
2017-03-21T14:07:38.049Z,9.1
2017-03-21T14:08:40.232Z,9.1
2017-03-21T14:09:42.079Z,9
2017-03-21T14:10:43.935Z,9.1
2017-03-21T14:11:45.797Z,9.2
2017-03-21T14:12:47.645Z,9.3